Time;durP1;ratioP1;P1;durP2;ratioP2;P2;SDS_P1;SDS_P2;PMS_P1;PMS_P2;Temp;Humidity;BMP_temperature;BMP_pressure;BME280_temperature;BME280_humidity;BME280_pressure;Samples;Min_cycle;Max_cycle;Signal;HPM_P1;HPM_P2
2022/07/16 00:05:19;;;;;;;4.32;3.85;;;;;14.00;96720.00;;;;8251812;28;20305;-85
2022/07/16 00:09:22;;;;;;;4.45;3.58;;;;;14.00;96722.00;;;;8244732;28;20237;-86
2022/07/16 00:13:27;;;;;;;5.65;3.92;;;;;13.90;96720.00;;;;8236015;28;20239;-80
2022/07/16 00:17:32;;;;;;;8.32;3.88;;;;;13.90;96723.00;;;;8234704;28;20241;-84
2022/07/16 00:21:35;;;;;;;3.80;3.40;;;;;13.90;96717.00;;;;8236670;28;20280;-85
2022/07/16 00:25:38;;;;;;;4.07;3.33;;;;;13.90;96713.00;;;;8249539;28;20331;-82
2022/07/16 00:29:41;;;;;;;4.85;3.30;;;;;13.90;96708.00;;;;8240598;28;20703;-82
2022/07/16 00:33:46;;;;;;;5.38;3.55;;;;;13.80;96706.00;;;;8249176;28;20235;-83
2022/07/16 00:37:49;;;;;;;6.95;3.50;;;;;13.80;96701.00;;;;8248537;28;20319;-84
2022/07/16 00:41:53;;;;;;;5.75;3.95;;;;;13.60;96705.00;;;;8236235;28;20228;-84
2022/07/16 00:45:56;;;;;;;4.97;3.67;;;;;13.60;96698.00;;;;8262085;28;20329;-81
2022/07/16 00:50:00;;;;;;;4.70;3.30;;;;;13.50;96701.00;;;;8253546;28;20328;-81
2022/07/16 00:54:04;;;;;;;5.50;3.60;;;;;13.50;96706.00;;;;8254004;28;20342;-81
2022/07/16 00:58:07;;;;;;;5.50;3.65;;;;;13.40;96703.00;;;;8242603;28;20324;-82
2022/07/16 01:02:10;;;;;;;6.00;3.50;;;;;13.30;96704.00;;;;8243532;28;20685;-84
2022/07/16 01:06:16;;;;;;;3.92;3.53;;;;;13.20;96700.00;;;;8249814;28;20322;-83
2022/07/16 01:10:21;;;;;;;5.45;4.10;;;;;13.10;96692.00;;;;8248216;28;20230;-87
2022/07/16 01:14:32;;;;;;;4.65;3.85;;;;;13.10;96700.00;;;;8236877;28;20323;-84
2022/07/16 01:18:36;;;;;;;5.53;4.05;;;;;13.00;96701.00;;;;8247858;28;20232;-82
2022/07/16 01:22:40;;;;;;;9.32;3.90;;;;;13.00;96702.00;;;;8246635;28;20227;-85
2022/07/16 01:26:45;;;;;;;5.72;4.07;;;;;12.90;96703.00;;;;8245286;28;20310;-81
2022/07/16 01:30:49;;;;;;;7.85;3.47;;;;;12.90;96701.00;;;;8242575;28;20308;-86
2022/07/16 01:34:52;;;;;;;9.52;3.63;;;;;12.90;96703.00;;;;8237526;28;20331;-85
2022/07/16 01:38:55;;;;;;;4.30;3.75;;;;;12.80;96703.00;;;;8252505;28;20336;-85
2022/07/16 01:43:00;;;;;;;6.47;4.20;;;;;12.70;96697.00;;;;8248754;28;20828;-82
2022/07/16 01:47:05;;;;;;;8.00;4.53;;;;;12.70;96701.00;;;;8239110;28;20223;-80
2022/07/16 01:51:08;;;;;;;5.90;3.60;;;;;12.60;96693.00;;;;8242976;28;20236;-85
2022/07/16 01:55:11;;;;;;;5.57;3.80;;;;;12.50;96694.00;;;;8252559;28;20323;-89
2022/07/16 01:59:16;;;;;;;7.65;4.15;;;;;12.50;96701.00;;;;8256263;28;20244;-84
2022/07/16 02:03:19;;;;;;;6.50;4.30;;;;;12.40;96697.00;;;;8252731;28;20322;-82
2022/07/16 02:07:23;;;;;;;6.95;3.97;;;;;12.30;96696.00;;;;8255837;28;21036;-82
2022/07/16 02:11:26;;;;;;;5.30;4.13;;;;;12.30;96702.00;;;;8252900;28;20232;-83
2022/07/16 02:15:31;;;;;;;3.95;3.65;;;;;12.30;96693.00;;;;8241879;28;20218;-84
2022/07/16 02:19:34;;;;;;;6.97;3.90;;;;;12.20;96702.00;;;;8255027;28;20239;-88
2022/07/16 02:23:37;;;;;;;6.43;3.75;;;;;12.20;96698.00;;;;8253068;28;20245;-86
2022/07/16 02:28:05;;;;;;;6.03;4.28;;;;;12.10;96703.00;;;;8253467;28;20304;-88
2022/07/16 02:32:06;;;;;;;6.82;4.65;;;;;12.10;96700.00;;;;8253173;28;20229;-84
2022/07/16 02:36:11;;;;;;;6.77;4.50;;;;;12.10;96699.00;;;;8242060;28;20225;-84
2022/07/16 02:40:15;;;;;;;4.40;3.85;;;;;12.00;96690.00;;;;8259719;28;20309;-89
2022/07/16 02:44:18;;;;;;;4.63;3.90;;;;;12.00;96697.00;;;;8252498;28;20250;-86
2022/07/16 02:48:23;;;;;;;8.87;4.57;;;;;12.00;96693.00;;;;8239223;28;20242;-83
2022/07/16 02:52:27;;;;;;;4.50;4.10;;;;;12.00;96701.00;;;;8244310;28;20311;-85
2022/07/16 02:56:30;;;;;;;5.65;3.97;;;;;11.90;96698.00;;;;8242201;28;20227;-88
2022/07/16 03:00:33;;;;;;;6.28;3.78;;;;;11.90;96690.00;;;;8258572;28;20236;-87
2022/07/16 03:04:38;;;;;;;5.37;4.30;;;;;11.80;96698.00;;;;8298957;23;20309;-83
2022/07/16 03:08:41;;;;;;;7.90;4.70;;;;;11.70;96693.00;;;;8284503;28;20241;-87
2022/07/16 03:12:45;;;;;;;5.70;5.03;;;;;11.60;96700.00;;;;8285777;28;20222;-79
2022/07/16 03:16:48;;;;;;;5.57;4.53;;;;;11.60;96701.00;;;;8284706;28;20317;-79
2022/07/16 03:20:53;;;;;;;4.77;4.30;;;;;11.50;96697.00;;;;8260707;28;20393;-79
2022/07/16 03:24:56;;;;;;;7.47;4.80;;;;;11.50;96701.00;;;;8273930;28;20312;-80
2022/07/16 03:28:59;;;;;;;4.90;4.40;;;;;11.40;96706.00;;;;8277267;28;20234;-80
2022/07/16 03:33:03;;;;;;;7.37;4.60;;;;;11.40;96713.00;;;;8271766;28;20775;-85
2022/07/16 03:37:08;;;;;;;5.40;4.20;;;;;11.40;96710.00;;;;8275414;28;20237;-85
2022/07/16 03:41:11;;;;;;;6.53;4.53;;;;;11.50;96703.00;;;;8276616;28;20261;-81
2022/07/16 03:45:14;;;;;;;7.93;4.33;;;;;11.50;96711.00;;;;8282803;28;20222;-82
2022/07/16 03:49:18;;;;;;;5.50;4.37;;;;;11.50;96713.00;;;;8276733;28;20720;-78
2022/07/16 03:53:24;;;;;;;8.07;4.33;;;;;11.60;96712.00;;;;8280757;28;20308;-81
2022/07/16 03:57:28;;;;;;;5.93;4.40;;;;;11.60;96718.00;;;;8286713;28;20228;-79
2022/07/16 04:01:31;;;;;;;7.63;4.88;;;;;11.60;96724.00;;;;8270667;28;20885;-82
2022/07/16 04:05:34;;;;;;;8.80;4.57;;;;;11.80;96723.00;;;;8284346;28;20252;-79
2022/07/16 04:09:39;;;;;;;5.23;4.07;;;;;11.90;96726.00;;;;8268601;28;20408;-82
2022/07/16 04:13:42;;;;;;;7.05;4.13;;;;;12.10;96727.00;;;;8272444;28;20237;-78
2022/07/16 04:17:45;;;;;;;5.93;4.20;;;;;12.30;96728.00;;;;8272936;28;20233;-77
2022/07/16 04:21:49;;;;;;;7.03;4.10;;;;;12.50;96727.00;;;;8273892;28;20653;-75
2022/07/16 04:25:53;;;;;;;6.03;3.97;;;;;12.80;96732.00;;;;8271646;28;20350;-78
2022/07/16 04:29:57;;;;;;;5.03;4.15;;;;;13.20;96735.00;;;;8297042;28;20236;-79
2022/07/16 04:34:00;;;;;;;4.65;3.55;;;;;13.50;96732.00;;;;8267715;28;20223;-78
2022/07/16 04:38:07;;;;;;;5.20;4.10;;;;;13.80;96743.00;;;;8263462;28;20225;-76
2022/07/16 04:42:11;;;;;;;4.53;4.13;;;;;14.10;96735.00;;;;8287519;28;20227;-77
2022/07/16 04:46:15;;;;;;;6.03;3.70;;;;;14.50;96745.00;;;;8275778;28;20885;-75
2022/07/16 04:50:18;;;;;;;4.25;3.40;;;;;14.80;96749.00;;;;8274588;28;20237;-77
2022/07/16 04:54:29;;;;;;;6.47;3.72;;;;;15.20;96756.00;;;;8265189;28;20220;-76
2022/07/16 04:58:34;;;;;;;5.47;3.70;;;;;15.60;96749.00;;;;8280005;28;20224;-76
2022/07/16 05:06:58;;;;;;;13.68;4.40;;;;;16.60;96756.00;;;;8278959;28;20848;-75
2022/07/16 05:11:02;;;;;;;3.75;3.38;;;;;16.90;96763.00;;;;8284417;28;20237;-76
2022/07/16 05:15:08;;;;;;;4.35;2.88;;;;;17.40;96765.00;;;;8288898;28;20244;-75
2022/07/16 05:19:12;;;;;;;3.58;3.00;;;;;17.70;96767.00;;;;8274842;28;20225;-75
2022/07/16 05:23:15;;;;;;;5.45;3.63;;;;;18.00;96762.00;;;;8267650;28;20282;-76
2022/07/16 05:27:19;;;;;;;5.65;2.97;;;;;18.30;96771.00;;;;8276350;28;20228;-74
2022/07/16 05:31:24;;;;;;;6.22;3.47;;;;;18.70;96765.00;;;;8279082;28;20235;-73
2022/07/16 05:35:28;;;;;;;5.57;3.10;;;;;18.90;96774.00;;;;8282358;28;20234;-73
2022/07/16 05:39:31;;;;;;;6.00;3.65;;;;;19.10;96772.00;;;;8276174;28;20264;-68
2022/07/16 05:43:35;;;;;;;4.72;3.13;;;;;19.30;96769.00;;;;8276983;28;20682;-70
2022/07/16 05:47:40;;;;;;;8.98;2.80;;;;;19.50;96780.00;;;;8283406;28;20747;-70
2022/07/16 05:51:43;;;;;;;9.55;2.90;;;;;19.60;96780.00;;;;8282186;28;20399;-72
2022/07/16 05:55:46;;;;;;;4.40;2.78;;;;;19.80;96775.00;;;;8281906;28;20257;-71
2022/07/16 05:59:50;;;;;;;4.57;2.75;;;;;20.20;96779.00;;;;8260904;28;20312;-71
2022/07/16 06:03:54;;;;;;;9.40;3.15;;;;;20.60;96783.00;;;;8290432;28;20233;-70
2022/07/16 06:07:57;;;;;;;4.47;2.55;;;;;21.10;96783.00;;;;8286350;28;20226;-70
2022/07/16 06:12:01;;;;;;;4.95;2.45;;;;;21.80;96789.00;;;;8283189;28;20241;-68
2022/07/16 06:16:07;;;;;;;3.50;2.78;;;;;22.50;96791.00;;;;8275540;28;20349;-72
2022/07/16 06:20:12;;;;;;;6.63;2.63;;;;;23.10;96790.00;;;;8275379;28;20229;-73
2022/07/16 06:24:16;;;;;;;3.70;2.38;;;;;23.50;96791.00;;;;8273899;28;20244;-73
2022/07/16 06:28:20;;;;;;;9.55;2.60;;;;;23.50;96794.00;;;;8277145;28;20715;-74
2022/07/16 06:32:23;;;;;;;3.50;2.45;;;;;23.60;96792.00;;;;8288285;28;20232;-72
2022/07/16 06:36:28;;;;;;;10.30;2.67;;;;;24.20;96799.00;;;;8277531;28;20225;-74
2022/07/16 06:40:34;;;;;;;2.22;2.05;;;;;24.80;96806.00;;;;8288878;28;20324;-72
2022/07/16 06:44:40;;;;;;;3.40;2.00;;;;;25.20;96802.00;;;;8277244;28;20236;-68
2022/07/16 06:48:44;;;;;;;4.70;2.40;;;;;25.50;96803.00;;;;8268536;28;20222;-72
2022/07/16 06:52:48;;;;;;;2.45;2.10;;;;;25.90;96810.00;;;;8282049;28;20228;-72
2022/07/16 06:56:51;;;;;;;3.10;2.00;;;;;25.90;96812.00;;;;8280384;28;20309;-73
2022/07/16 07:00:55;;;;;;;7.03;1.90;;;;;26.00;96811.00;;;;8263516;28;20222;-74
2022/07/16 07:04:58;;;;;;;2.90;1.70;;;;;26.40;96817.00;;;;8266013;28;20252;-72
2022/07/16 07:09:02;;;;;;;4.13;2.40;;;;;27.00;96810.00;;;;8288688;28;20633;-75
2022/07/16 07:13:06;;;;;;;4.60;1.80;;;;;27.00;96813.00;;;;8281760;28;20297;-72
2022/07/16 07:17:09;;;;;;;4.70;1.75;;;;;26.70;96819.00;;;;8283363;28;20699;-72
2022/07/16 07:21:12;;;;;;;4.03;1.95;;;;;26.50;96818.00;;;;8327816;23;20225;-72
2022/07/16 07:25:17;;;;;;;3.92;1.80;;;;;26.20;96829.00;;;;8303548;28;20228;-74
2022/07/16 07:29:21;;;;;;;4.65;1.73;;;;;26.20;96826.00;;;;8315766;28;20319;-73
2022/07/16 07:33:24;;;;;;;2.55;1.67;;;;;26.20;96824.00;;;;8320527;28;20279;-75
2022/07/16 07:37:28;;;;;;;5.28;1.67;;;;;26.20;96828.00;;;;8331491;28;20224;-76
2022/07/16 07:41:33;;;;;;;4.90;1.75;;;;;26.10;96828.00;;;;8337013;28;20314;-76
2022/07/16 07:45:37;;;;;;;1.90;1.65;;;;;25.70;96827.00;;;;8312539;28;20227;-77
2022/07/16 07:49:41;;;;;;;4.25;1.80;;;;;25.90;96816.00;;;;8331037;28;20232;-78
2022/07/16 07:53:46;;;;;;;3.67;1.95;;;;;26.60;96802.00;;;;8338635;28;20582;-78
2022/07/16 07:57:50;;;;;;;3.90;1.80;;;;;27.00;96812.00;;;;8337438;28;20320;-73
2022/07/16 08:01:54;;;;;;;2.72;1.60;;;;;26.70;96812.00;;;;8344872;28;20221;-75
2022/07/16 08:05:57;;;;;;;1.98;1.77;;;;;26.70;96813.00;;;;8337310;28;20307;-76
2022/07/16 08:10:00;;;;;;;1.73;1.63;;;;;27.10;96812.00;;;;8332342;28;20328;-76
2022/07/16 08:14:05;;;;;;;3.63;1.50;;;;;27.40;96803.00;;;;8324882;28;20316;-76
2022/07/16 08:18:28;;;;;;;2.60;1.70;;;;;27.80;96817.00;;;;8331530;28;20243;-72
2022/07/16 08:22:31;;;;;;;4.10;1.50;;;;;28.10;96820.00;;;;8321436;28;20257;-76
2022/07/16 08:26:35;;;;;;;3.78;2.05;;;;;28.00;96822.00;;;;8335754;28;20233;-74
2022/07/16 08:30:40;;;;;;;4.68;1.92;;;;;27.90;96813.00;;;;8337014;28;20252;-74
2022/07/16 08:34:43;;;;;;;2.60;1.70;;;;;28.40;96814.00;;;;8309424;28;20560;-76
2022/07/16 08:38:46;;;;;;;5.32;1.40;;;;;28.70;96812.00;;;;8338441;28;20223;-74
2022/07/16 08:42:50;;;;;;;2.30;1.80;;;;;28.70;96815.00;;;;8336731;28;20312;-75
2022/07/16 08:46:56;;;;;;;3.63;1.70;;;;;29.00;96811.00;;;;8328465;28;20249;-76
2022/07/16 08:51:01;;;;;;;3.58;1.83;;;;;29.20;96819.00;;;;8339504;28;20260;-74
2022/07/16 08:55:07;;;;;;;2.35;1.48;;;;;29.70;96830.00;;;;8338352;28;23249;-74
2022/07/16 08:59:10;;;;;;;1.50;1.40;;;;;29.70;96832.00;;;;8336801;28;20309;-76
2022/07/16 09:03:16;;;;;;;3.00;1.73;;;;;29.50;96844.00;;;;8338553;28;20307;-76
2022/07/16 09:07:21;;;;;;;7.07;1.42;;;;;29.50;96839.00;;;;8341985;28;20228;-77
2022/07/16 09:11:25;;;;;;;5.85;1.60;;;;;29.60;96841.00;;;;8343074;28;20589;-76
2022/07/16 09:15:32;;;;;;;3.88;1.70;;;;;29.40;96838.00;;;;8333123;28;20236;-77
2022/07/16 09:19:37;;;;;;;1.88;1.40;;;;;28.80;96851.00;;;;8333544;28;20320;-76
2022/07/16 09:23:42;;;;;;;2.92;1.67;;;;;28.80;96848.00;;;;8336258;28;20224;-78
2022/07/16 09:27:46;;;;;;;2.45;1.67;;;;;29.10;96846.00;;;;8336637;28;20273;-77
2022/07/16 09:31:49;;;;;;;3.53;1.70;;;;;29.60;96850.00;;;;8332370;28;20246;-77
2022/07/16 09:36:08;;;;;;;3.88;2.47;;;;;28.70;96850.00;;;;8339329;28;20235;-78
2022/07/16 09:40:12;;;;;;;4.95;1.90;;;;;28.40;96858.00;;;;8333343;28;20253;-78
2022/07/16 09:44:17;;;;;;;3.63;2.00;;;;;28.30;96846.00;;;;8337335;28;20673;-78
2022/07/16 09:48:23;;;;;;;3.13;1.92;;;;;29.00;96840.00;;;;8334266;28;20236;-77
2022/07/16 09:52:32;;;;;;;2.78;1.63;;;;;29.50;96829.00;;;;8327221;28;20705;-75
2022/07/16 09:56:36;;;;;;;1.50;1.40;;;;;29.30;96843.00;;;;8327537;28;20225;-77
2022/07/16 10:00:39;;;;;;;4.07;1.50;;;;;29.50;96832.00;;;;8342511;28;20263;-76
2022/07/16 10:04:42;;;;;;;2.17;1.60;;;;;30.40;96842.00;;;;8342754;28;20235;-77
2022/07/16 10:08:47;;;;;;;1.80;1.70;;;;;31.20;96838.00;;;;8337960;28;20229;-78
2022/07/16 10:12:52;;;;;;;4.00;1.80;;;;;31.20;96834.00;;;;8328310;28;20305;-78
2022/07/16 10:17:00;;;;;;;3.92;1.63;;;;;31.10;96833.00;;;;8333011;28;20237;-74
2022/07/16 10:21:06;;;;;;;5.22;1.50;;;;;30.30;96839.00;;;;8321362;28;20232;-79
2022/07/16 10:25:16;;;;;;;5.65;1.73;;;;;30.30;96842.00;;;;8334607;28;20255;-76
2022/07/16 10:29:42;;;;;;;3.03;2.00;;;;;30.20;96831.00;;;;8330602;28;20225;-74
2022/07/16 10:33:45;;;;;;;3.85;2.15;;;;;30.00;96832.00;;;;8332626;28;20261;-77
2022/07/16 10:37:48;;;;;;;3.28;1.77;;;;;30.30;96831.00;;;;8320438;28;20221;-75
2022/07/16 10:42:18;;;;;;;2.72;1.85;;;;;30.20;96831.00;;;;8324690;28;20727;-77
2022/07/16 10:46:26;;;;;;;4.18;1.83;;;;;30.20;96819.00;;;;8328846;28;20256;-79
2022/07/16 10:50:29;;;;;;;1.83;1.73;;;;;30.10;96830.00;;;;8319945;28;20749;-78
2022/07/16 10:54:35;;;;;;;4.70;1.70;;;;;29.70;96827.00;;;;8337255;28;20220;-80
2022/07/16 10:58:40;;;;;;;3.25;1.63;;;;;29.70;96832.00;;;;8328215;28;20557;-78
2022/07/16 11:02:44;;;;;;;3.22;1.80;;;;;29.50;96818.00;;;;8321237;28;20291;-78
2022/07/16 11:07:09;;;;;;;3.63;1.58;;;;;30.30;96815.00;;;;8340751;28;20217;-79
2022/07/16 11:11:16;;;;;;;3.45;1.50;;;;;30.70;96817.00;;;;8331452;28;20237;-77
2022/07/16 11:15:21;;;;;;;3.20;1.40;;;;;30.80;96824.00;;;;8315567;28;20252;-78
2022/07/16 11:19:25;;;;;;;5.40;1.70;;;;;30.80;96837.00;;;;8339339;28;20312;-77
2022/07/16 11:23:28;;;;;;;3.17;1.55;;;;;31.30;96836.00;;;;8314226;28;20644;-76
2022/07/16 11:27:32;;;;;;;1.92;1.35;;;;;32.10;96841.00;;;;8331285;28;20258;-77
2022/07/16 11:31:38;;;;;;;3.03;1.63;;;;;31.50;96841.00;;;;8328131;28;20241;-75
2022/07/16 11:35:41;;;;;;;5.07;1.80;;;;;31.00;96842.00;;;;8338381;28;20716;-76
2022/07/16 11:39:44;;;;;;;2.95;1.30;;;;;31.10;96843.00;;;;8335166;28;20231;-74
2022/07/16 11:43:47;;;;;;;1.58;1.48;;;;;31.80;96836.00;;;;8328214;28;20406;-75
2022/07/16 11:48:10;;;;;;;2.17;1.70;;;;;33.10;96835.00;;;;8332980;28;20307;-74
2022/07/16 11:52:22;;;;;;;2.13;1.92;;;;;32.20;96847.00;;;;8319185;28;20224;-77
2022/07/16 11:56:33;;;;;;;3.88;1.60;;;;;30.80;96841.00;;;;8314672;28;20841;-77
2022/07/16 12:00:43;;;;;;;2.92;1.75;;;;;30.60;96839.00;;;;8335128;28;20315;-73
2022/07/16 12:04:51;;;;;;;2.45;1.40;;;;;30.60;96851.00;;;;8331896;28;20248;-77
2022/07/16 12:08:55;;;;;;;2.55;1.35;;;;;31.60;96831.00;;;;8333320;28;20228;-78
2022/07/16 12:13:02;;;;;;;1.25;1.23;;;;;32.00;96844.00;;;;8326296;28;20239;-77
2022/07/16 12:17:06;;;;;;;3.85;1.77;;;;;33.10;96844.00;;;;8314397;28;20312;-76
2022/07/16 12:21:27;;;;;;;3.55;1.30;;;;;33.60;96838.00;;;;8337475;28;20582;-79
2022/07/16 12:25:35;;;;;;;2.70;1.50;;;;;33.50;96833.00;;;;8333012;28;20565;-76
2022/07/16 12:29:40;;;;;;;1.20;1.20;;;;;33.80;96843.00;;;;8343795;28;20260;-78
2022/07/16 12:33:51;;;;;;;2.30;1.30;;;;;33.80;96840.00;;;;8327244;28;20221;-79
2022/07/16 12:37:56;;;;;;;3.22;1.40;;;;;33.50;96842.00;;;;8342246;28;20217;-73
2022/07/16 12:41:59;;;;;;;1.42;1.33;;;;;32.70;96827.00;;;;8320576;28;20228;-77
2022/07/16 12:46:03;;;;;;;4.38;1.45;;;;;32.30;96835.00;;;;8335659;28;20232;-74
2022/07/16 12:50:08;;;;;;;1.40;1.30;;;;;31.60;96838.00;;;;8344427;28;20228;-76
2022/07/16 12:54:14;;;;;;;1.70;1.60;;;;;30.10;96861.00;;;;8328674;28;20244;-77
2022/07/16 13:02:38;;;;;;;1.40;1.40;;;;;28.30;96840.00;;;;8334505;28;20627;-78
2022/07/16 13:06:42;;;;;;;1.42;1.42;;;;;28.80;96847.00;;;;8337568;28;20225;-77
2022/07/16 13:10:47;;;;;;;2.75;1.52;;;;;28.60;96842.00;;;;8332710;28;20230;-75
2022/07/16 13:15:04;;;;;;;1.75;1.38;;;;;28.70;96848.00;;;;8326063;28;20299;-76
2022/07/16 13:19:08;;;;;;;4.93;1.80;;;;;29.00;96840.00;;;;8333279;28;20236;-77
2022/07/16 13:23:11;;;;;;;2.25;1.50;;;;;29.20;96854.00;;;;8329798;28;20268;-77
2022/07/16 13:27:16;;;;;;;3.30;1.80;;;;;28.90;96857.00;;;;8334311;28;20233;-76
2022/07/16 13:31:24;;;;;;;3.17;1.17;;;;;29.50;96841.00;;;;8334241;28;20248;-78
2022/07/16 13:35:27;;;;;;;4.38;1.60;;;;;30.30;96843.00;;;;8322162;28;20283;-78
2022/07/16 13:39:31;;;;;;;1.65;1.58;;;;;30.10;96851.00;;;;8334507;28;20610;-77
2022/07/16 13:43:36;;;;;;;2.42;1.65;;;;;29.90;96853.00;;;;8326885;28;20853;-75
2022/07/16 13:47:39;;;;;;;3.28;1.50;;;;;30.20;96853.00;;;;8302236;28;20226;-71
2022/07/16 13:51:43;;;;;;;1.70;1.60;;;;;30.50;96850.00;;;;8325937;28;20229;-71
2022/07/16 13:55:48;;;;;;;2.80;1.55;;;;;30.70;96867.00;;;;8323853;28;20232;-71
2022/07/16 13:59:53;;;;;;;1.48;1.45;;;;;30.20;96842.00;;;;8315723;28;20673;-71
2022/07/16 14:03:57;;;;;;;1.77;1.60;;;;;30.00;96861.00;;;;8321601;28;20224;-71
2022/07/16 14:08:00;;;;;;;1.75;1.52;;;;;29.90;96851.00;;;;8329600;28;20239;-72
2022/07/16 14:12:04;;;;;;;1.95;1.45;;;;;30.60;96849.00;;;;8309460;28;20236;-72
2022/07/16 14:16:08;;;;;;;2.83;1.85;;;;;30.60;96851.00;;;;8329072;28;20224;-72
2022/07/16 14:20:14;;;;;;;2.30;1.60;;;;;30.90;96872.00;;;;8329112;28;20323;-72
2022/07/16 14:24:17;;;;;;;3.13;1.80;;;;;30.70;96868.00;;;;8321500;28;20781;-71
2022/07/16 14:28:20;;;;;;;2.00;1.60;;;;;30.40;96870.00;;;;8318667;28;20304;-72
2022/07/16 14:32:25;;;;;;;1.63;1.50;;;;;29.50;96865.00;;;;8330136;28;20329;-72
2022/07/16 14:36:29;;;;;;;1.67;1.48;;;;;29.80;96865.00;;;;8328551;28;20299;-70
2022/07/16 14:40:33;;;;;;;4.38;1.73;;;;;29.80;96862.00;;;;8318211;28;20272;-71
2022/07/16 14:44:36;;;;;;;4.43;1.85;;;;;30.20;96874.00;;;;8302628;28;20230;-71
2022/07/16 14:48:41;;;;;;;7.63;1.83;;;;;30.10;96871.00;;;;8301733;28;20231;-71
2022/07/16 14:52:46;;;;;;;2.70;1.63;;;;;30.00;96877.00;;;;8295964;28;20240;-75
2022/07/16 14:56:57;;;;;;;3.10;1.70;;;;;30.30;96869.00;;;;8299330;28;20233;-70
2022/07/16 15:01:00;;;;;;;3.83;1.63;;;;;30.30;96879.00;;;;8305224;28;20225;-70
2022/07/16 15:05:06;;;;;;;2.42;1.70;;;;;29.70;96873.00;;;;8310359;28;20236;-72
2022/07/16 15:09:09;;;;;;;3.53;1.83;;;;;29.70;96881.00;;;;8309085;28;20236;-72
2022/07/16 15:13:12;;;;;;;2.28;1.70;;;;;29.90;96884.00;;;;8313021;28;20263;-72
2022/07/16 15:17:16;;;;;;;2.55;1.75;;;;;29.80;96878.00;;;;8304784;28;20312;-72
2022/07/16 15:21:21;;;;;;;2.90;1.75;;;;;29.20;96888.00;;;;8313309;28;20221;-72
2022/07/16 15:25:24;;;;;;;2.03;1.88;;;;;29.40;96887.00;;;;8320770;28;20232;-73
2022/07/16 15:29:28;;;;;;;2.10;1.80;;;;;29.80;96887.00;;;;8306345;28;20233;-71
2022/07/16 15:33:41;;;;;;;4.18;1.80;;;;;29.70;96885.00;;;;8319819;28;20761;-71
2022/07/16 15:37:54;;;;;;;5.25;1.80;;;;;29.40;96880.00;;;;8330687;28;20252;-72
2022/07/16 15:41:58;;;;;;;2.33;1.83;;;;;29.10;96886.00;;;;8323303;28;20239;-72
2022/07/16 15:46:01;;;;;;;2.22;1.95;;;;;29.40;96877.00;;;;8313801;28;20686;-72
2022/07/16 15:50:05;;;;;;;2.03;1.92;;;;;29.70;96900.00;;;;8306307;28;20253;-73
2022/07/16 15:54:10;;;;;;;1.95;1.85;;;;;29.40;96874.00;;;;8323280;28;20315;-71
2022/07/16 15:58:13;;;;;;;3.20;2.03;;;;;29.90;96871.00;;;;8328201;28;20778;-72
2022/07/16 16:02:16;;;;;;;4.68;1.80;;;;;30.10;96869.00;;;;8318195;28;20236;-72
2022/07/16 16:06:20;;;;;;;5.95;2.08;;;;;30.00;96876.00;;;;8319773;28;20248;-72
2022/07/16 16:10:24;;;;;;;4.03;2.00;;;;;29.90;96880.00;;;;8324474;28;20232;-72
2022/07/16 16:14:28;;;;;;;2.65;1.60;;;;;29.80;96871.00;;;;8306707;28;20233;-72
2022/07/16 16:18:31;;;;;;;1.70;1.60;;;;;29.80;96879.00;;;;8297481;28;20217;-73
2022/07/16 16:22:35;;;;;;;3.38;2.15;;;;;29.90;96880.00;;;;8316768;28;20226;-74
2022/07/16 16:26:39;;;;;;;2.60;1.70;;;;;30.10;96889.00;;;;8309087;28;20300;-73
2022/07/16 16:30:43;;;;;;;1.98;1.80;;;;;30.50;96879.00;;;;8291840;28;20251;-74
2022/07/16 16:34:46;;;;;;;2.47;2.10;;;;;30.60;96888.00;;;;8305395;28;20233;-73
2022/07/16 16:38:50;;;;;;;2.03;1.83;;;;;30.40;96883.00;;;;8303374;28;20221;-74
2022/07/16 16:42:54;;;;;;;3.85;1.88;;;;;30.30;96889.00;;;;8303960;28;20229;-74
2022/07/16 16:46:57;;;;;;;7.85;1.85;;;;;30.10;96894.00;;;;8295559;28;20225;-72
2022/07/16 16:51:01;;;;;;;5.53;2.13;;;;;30.20;96891.00;;;;8318986;28;20927;-74
2022/07/16 16:55:05;;;;;;;3.15;1.98;;;;;30.30;96897.00;;;;8311169;28;22190;-74
2022/07/16 16:59:11;;;;;;;3.35;1.90;;;;;30.40;96900.00;;;;8307375;28;20817;-74
2022/07/16 17:03:14;;;;;;;2.70;1.90;;;;;29.90;96901.00;;;;8314983;28;20236;-70
2022/07/16 17:07:17;;;;;;;4.45;2.00;;;;;29.90;96907.00;;;;8308408;28;20221;-74
2022/07/16 17:11:20;;;;;;;2.75;1.77;;;;;30.00;96905.00;;;;8321178;28;20220;-73
2022/07/16 17:15:25;;;;;;;3.80;1.77;;;;;30.80;96907.00;;;;8324802;28;20224;-73
2022/07/16 17:19:29;;;;;;;4.50;2.20;;;;;31.20;96913.00;;;;8325531;28;21861;-72
2022/07/16 17:23:32;;;;;;;6.82;1.85;;;;;31.10;96924.00;;;;8315399;28;20237;-74
2022/07/16 17:27:35;;;;;;;6.97;2.03;;;;;30.60;96926.00;;;;8314558;28;20233;-72
2022/07/16 17:31:40;;;;;;;2.08;1.73;;;;;30.60;96925.00;;;;8326887;28;20636;-71
2022/07/16 17:35:43;;;;;;;3.30;1.90;;;;;30.40;96937.00;;;;8322706;28;20233;-70
2022/07/16 17:39:46;;;;;;;3.22;2.10;;;;;30.00;96933.00;;;;8332936;28;20217;-70
2022/07/16 17:43:49;;;;;;;1.98;1.85;;;;;29.90;96933.00;;;;8337353;28;20316;-70
2022/07/16 17:47:54;;;;;;;1.83;1.70;;;;;30.00;96940.00;;;;8334011;28;20225;-72
2022/07/16 17:51:59;;;;;;;2.00;1.90;;;;;29.70;96938.00;;;;8326770;28;20278;-71
2022/07/16 17:56:02;;;;;;;1.75;1.65;;;;;29.90;96933.00;;;;8316041;28;20678;-71
2022/07/16 18:00:09;;;;;;;3.75;1.80;;;;;30.10;96945.00;;;;8317145;28;20228;-71
2022/07/16 18:04:14;;;;;;;3.15;2.10;;;;;29.30;96943.00;;;;8315359;28;20256;-70
2022/07/16 18:08:17;;;;;;;2.15;1.80;;;;;28.40;96938.00;;;;8311426;28;20233;-71
2022/07/16 18:12:20;;;;;;;2.45;1.83;;;;;27.40;96936.00;;;;8311950;28;20233;-71
2022/07/16 18:16:24;;;;;;;2.22;2.03;;;;;26.70;96937.00;;;;8315540;28;20232;-71
2022/07/16 18:20:29;;;;;;;4.88;1.80;;;;;26.10;96937.00;;;;8313381;28;20237;-71
2022/07/16 18:24:32;;;;;;;3.40;1.60;;;;;25.60;96945.00;;;;8310610;28;20328;-72
2022/07/16 18:28:35;;;;;;;2.55;2.00;;;;;25.20;96947.00;;;;8316212;28;20291;-71
2022/07/16 18:32:39;;;;;;;4.72;2.10;;;;;24.90;96940.00;;;;8312181;28;20256;-72
2022/07/16 18:36:45;;;;;;;2.75;1.60;;;;;24.70;96946.00;;;;8313150;28;20638;-71
2022/07/16 18:40:48;;;;;;;8.55;2.10;;;;;24.40;96953.00;;;;8309771;28;20228;-71
2022/07/16 18:44:51;;;;;;;8.88;2.28;;;;;24.20;96954.00;;;;8306160;28;20228;-70
2022/07/16 18:48:54;;;;;;;9.40;2.20;;;;;24.00;96954.00;;;;8326295;28;20732;-70
2022/07/16 18:52:59;;;;;;;20.63;2.47;;;;;23.80;96962.00;;;;8309457;28;20324;-69
2022/07/16 18:57:03;;;;;;;8.98;2.08;;;;;23.60;96961.00;;;;8299104;28;20236;-70
2022/07/16 19:01:07;;;;;;;9.10;2.10;;;;;23.40;96978.00;;;;8329914;28;20239;-70
2022/07/16 19:05:11;;;;;;;11.20;2.63;;;;;23.30;96982.00;;;;8334825;28;20228;-70
2022/07/16 19:09:15;;;;;;;6.30;2.40;;;;;23.00;96988.00;;;;8327641;28;20315;-70
2022/07/16 19:13:19;;;;;;;14.38;3.38;;;;;22.70;96989.00;;;;8330510;28;20233;-71
2022/07/16 19:17:22;;;;;;;28.15;3.00;;;;;22.50;96988.00;;;;8340106;28;20225;-70
2022/07/16 19:21:25;;;;;;;18.85;2.58;;;;;22.30;96998.00;;;;8334352;28;20232;-68
2022/07/16 19:25:30;;;;;;;9.23;2.25;;;;;22.10;97007.00;;;;8326675;28;20225;-69
2022/07/16 19:29:33;;;;;;;1.92;1.83;;;;;21.90;97010.00;;;;8324422;28;20228;-69
2022/07/16 19:33:36;;;;;;;3.30;2.00;;;;;21.80;97007.00;;;;8333519;28;20229;-68
2022/07/16 19:37:41;;;;;;;23.05;2.50;;;;;21.70;97021.00;;;;8327450;28;20249;-70
2022/07/16 19:41:45;;;;;;;12.55;2.58;;;;;21.50;97013.00;;;;8313234;28;20591;-70
2022/07/16 19:45:49;;;;;;;18.55;2.78;;;;;21.30;97022.00;;;;8347842;28;20221;-70
2022/07/16 19:49:52;;;;;;;20.17;2.80;;;;;21.00;97028.00;;;;8321156;28;20228;-71
2022/07/16 19:53:55;;;;;;;20.33;2.90;;;;;20.80;97027.00;;;;8329898;28;20239;-70
2022/07/16 19:58:02;;;;;;;24.95;2.55;;;;;20.50;97020.00;;;;8342699;28;20320;-69
2022/07/16 20:02:08;;;;;;;20.70;2.63;;;;;20.30;97020.00;;;;8323797;28;20568;-70
2022/07/16 20:06:11;;;;;;;17.80;3.03;;;;;20.10;97037.00;;;;8342769;28;20228;-69
2022/07/16 20:10:15;;;;;;;14.25;2.72;;;;;19.90;97039.00;;;;8326242;28;20224;-69
2022/07/16 20:14:19;;;;;;;5.20;2.30;;;;;19.70;97042.00;;;;8348085;28;20240;-69
2022/07/16 20:18:23;;;;;;;7.18;2.20;;;;;19.60;97049.00;;;;8341609;28;20232;-68
2022/07/16 20:22:26;;;;;;;2.60;2.40;;;;;19.50;97053.00;;;;8318377;28;20573;-68
2022/07/16 20:26:29;;;;;;;4.80;2.42;;;;;19.60;97058.00;;;;8333779;28;20243;-69
2022/07/16 20:30:34;;;;;;;3.83;2.17;;;;;19.60;97057.00;;;;8339554;28;20233;-69
2022/07/16 20:34:37;;;;;;;4.22;2.13;;;;;19.70;97060.00;;;;8340456;28;20240;-69